Time;durP1;ratioP1;P1;durP2;ratioP2;P2;SDS_P1;SDS_P2;PMS_P1;PMS_P2;Temp;Humidity;BMP_temperature;BMP_pressure;BME280_temperature;BME280_humidity;BME280_pressure;Samples;Min_cycle;Max_cycle;Signal;HPM_P1;HPM_P2
2022/06/28 00:00:08;;;;;;;14.32;8.55;;;;;;;18.26;100.00;97664.78;5035807;28;20072;-76
2022/06/28 00:02:34;;;;;;;10.30;8.65;;;;;;;18.31;100.00;97676.91;5013176;28;20037;-76
2022/06/28 00:05:00;;;;;;;11.85;9.13;;;;;;;18.24;100.00;97654.06;5042996;28;20047;-77
2022/06/28 00:07:25;;;;;;;30.30;8.82;;;;;;;18.35;100.00;97672.06;5013409;28;20123;-75
2022/06/28 00:09:51;;;;;;;14.15;8.80;;;;;;;18.31;100.00;97673.34;5013382;28;20083;-77
2022/06/28 00:12:16;;;;;;;15.07;9.10;;;;;;;18.19;100.00;97660.91;5040455;28;20032;-76
2022/06/28 00:17:27;;;;;;;13.10;9.20;;;;;;;18.17;100.00;97666.47;5047415;28;20048;-76
2022/06/28 00:19:52;;;;;;;17.35;9.00;;;;;;;18.14;100.00;97665.91;5016342;28;20041;-76
2022/06/28 00:22:18;;;;;;;17.73;9.00;;;;;;;18.15;100.00;97676.56;5029671;28;20038;-77
2022/06/28 00:24:44;;;;;;;14.88;8.80;;;;;;;18.06;100.00;97672.00;4999744;28;20037;-76
2022/06/28 00:27:09;;;;;;;14.88;9.50;;;;;;;17.92;100.00;97658.00;5016232;28;20531;-77
2022/06/28 00:29:35;;;;;;;12.32;9.05;;;;;;;17.83;100.00;97647.00;5015183;28;20034;-76
2022/06/28 00:32:01;;;;;;;13.27;9.77;;;;;;;17.97;100.00;97671.97;5016206;28;20030;-77
2022/06/28 00:34:26;;;;;;;15.35;10.15;;;;;;;17.88;100.00;97663.69;5012638;28;20037;-76
2022/06/28 00:36:52;;;;;;;15.57;9.88;;;;;;;17.93;100.00;97662.41;5029377;28;20036;-77
2022/06/28 00:39:18;;;;;;;18.88;9.77;;;;;;;17.88;100.00;97660.97;4996231;28;20456;-77
2022/06/28 00:41:43;;;;;;;17.65;10.43;;;;;;;17.82;100.00;97656.09;5012446;28;20025;-77
2022/06/28 00:44:13;;;;;;;20.02;10.38;;;;;;;17.76;100.00;97651.25;5012485;28;20109;-77
2022/06/28 00:46:39;;;;;;;15.95;10.55;;;;;;;17.87;100.00;97671.94;5028800;28;20388;-76
2022/06/28 00:49:04;;;;;;;17.23;10.18;;;;;;;17.83;100.00;97671.38;5041074;28;20108;-76
2022/06/28 00:51:31;;;;;;;12.95;9.70;;;;;;;17.96;100.00;97695.50;5012642;28;20040;-77
2022/06/28 00:53:56;;;;;;;13.45;9.98;;;;;;;17.70;100.00;97659.06;4998692;28;20063;-76
2022/06/28 00:56:22;;;;;;;15.95;9.38;;;;;;;17.84;100.00;97692.00;5048550;28;20506;-76
2022/06/28 00:58:48;;;;;;;20.00;9.25;;;;;;;17.72;100.00;97684.13;5042827;28;20018;-75
2022/06/28 01:01:14;;;;;;;16.67;9.63;;;;;;;17.64;100.00;97675.81;5012160;28;20057;-76
2022/06/28 01:03:39;;;;;;;20.27;9.82;;;;;;;17.73;100.00;97688.53;5027914;28;20026;-76
2022/06/28 01:06:05;;;;;;;15.00;9.40;;;;;;;17.63;100.00;97693.03;5012262;28;20061;-77
2022/06/28 01:08:31;;;;;;;12.73;8.85;;;;;;;17.50;100.00;97676.16;5032915;28;20424;-74
2022/06/28 01:10:56;;;;;;;16.38;9.70;;;;;;;17.52;100.00;97683.16;5048401;28;20032;-75
2022/06/28 01:13:23;;;;;;;16.42;9.48;;;;;;;17.33;100.00;97675.78;5013652;28;20036;-75
2022/06/28 01:15:48;;;;;;;13.25;9.23;;;;;;;17.44;100.00;97698.34;5011927;28;20084;-76
2022/06/28 01:18:14;;;;;;;16.15;9.88;;;;;;;17.43;100.00;97700.19;5030949;28;20022;-75
2022/06/28 01:20:42;;;;;;;20.75;10.50;;;;;;;17.35;100.00;97692.72;5028379;28;20032;-75
2022/06/28 01:23:07;;;;;;;13.00;10.35;;;;;;;17.35;100.00;97697.28;5044395;28;20556;-75
2022/06/28 01:25:33;;;;;;;16.77;10.82;;;;;;;17.25;100.00;97683.72;5039790;28;20053;-75
2022/06/28 01:27:59;;;;;;;19.27;11.02;;;;;;;17.36;100.00;97696.28;5048067;28;20025;-78
2022/06/28 01:30:26;;;;;;;18.55;10.45;;;;;;;17.27;100.00;97683.56;4995061;28;20486;-76
2022/06/28 01:32:52;;;;;;;14.85;10.38;;;;;;;17.11;100.00;97656.13;5041789;28;20040;-76
2022/06/28 01:35:18;;;;;;;13.63;10.68;;;;;;;17.01;100.00;97649.84;5013944;28;20079;-74
2022/06/28 01:37:43;;;;;;;20.73;11.18;;;;;;;17.13;100.00;97663.16;5011718;28;20507;-75
2022/06/28 01:40:09;;;;;;;17.30;10.38;;;;;;;17.24;100.00;97664.91;5027833;28;20563;-76
2022/06/28 01:42:35;;;;;;;16.40;9.98;;;;;;;17.39;100.00;97687.03;5036523;28;21340;-75
2022/06/28 01:45:01;;;;;;;17.45;10.50;;;;;;;17.14;100.00;97659.44;4998603;28;20396;-75
2022/06/28 01:47:29;;;;;;;20.15;10.88;;;;;;;17.28;100.00;97694.28;5022682;28;20102;-76
2022/06/28 01:49:54;;;;;;;15.50;10.27;;;;;;;17.25;100.00;97697.25;5047373;28;20428;-76
2022/06/28 01:52:21;;;;;;;18.50;11.20;;;;;;;17.23;100.00;97691.09;5011365;28;20022;-76
2022/06/28 01:54:46;;;;;;;17.45;10.23;;;;;;;17.12;100.00;97680.34;5010976;28;20105;-75
2022/06/28 01:57:12;;;;;;;15.32;10.45;;;;;;;17.27;100.00;97697.09;5012493;28;20116;-75
2022/06/28 01:59:39;;;;;;;16.48;10.15;;;;;;;17.10;100.00;97670.66;4998004;28;20029;-75
2022/06/28 02:02:04;;;;;;;17.25;11.45;;;;;;;17.25;100.00;97696.38;5011709;28;20093;-74
2022/06/28 02:04:30;;;;;;;15.60;10.45;;;;;;;17.12;100.00;97666.84;4995087;28;20029;-76
2022/06/28 02:06:57;;;;;;;13.15;9.05;;;;;;;17.22;100.00;97691.22;5011141;28;20080;-75
2022/06/28 02:09:23;;;;;;;17.02;9.40;;;;;;;17.18;100.00;97684.38;5021850;28;20121;-75
2022/06/28 02:11:49;;;;;;;15.00;9.75;;;;;;;17.16;100.00;97691.75;5014288;28;20112;-73
2022/06/28 02:14:15;;;;;;;16.98;9.32;;;;;;;17.10;100.00;97674.19;5010751;28;20048;-77
2022/06/28 02:16:41;;;;;;;14.02;9.50;;;;;;;16.87;100.00;97652.84;5045995;28;20025;-75
2022/06/28 02:19:06;;;;;;;18.02;9.73;;;;;;;16.90;100.00;97685.00;5040957;28;20026;-75
2022/06/28 02:21:36;;;;;;;22.52;10.05;;;;;;;16.82;100.00;97684.81;5010602;28;20090;-76
2022/06/28 02:24:02;;;;;;;23.20;10.63;;;;;;;16.76;100.00;97687.03;5010649;28;20022;-74
2022/06/28 02:26:28;;;;;;;21.13;10.82;;;;;;;16.60;100.00;97664.16;5010639;28;20026;-75
2022/06/28 02:28:53;;;;;;;16.77;10.02;;;;;;;16.76;100.00;97687.03;5013952;28;20407;-75
2022/06/28 02:31:19;;;;;;;16.58;10.27;;;;;;;16.84;100.00;97686.41;4995874;28;20074;-76
2022/06/28 02:33:45;;;;;;;25.45;10.45;;;;;;;16.83;100.00;97689.25;5013344;28;20029;-75
2022/06/28 02:41:36;;;;;;;16.55;10.60;;;;;;;16.97;100.00;97692.47;5012249;28;20036;-77
2022/06/28 02:44:02;;;;;;;19.00;10.38;;;;;;;16.94;100.00;97686.47;5033986;28;20556;-76
2022/06/28 02:46:27;;;;;;;19.75;10.43;;;;;;;16.90;100.00;97685.00;5012798;28;20539;-74
2022/06/28 02:48:53;;;;;;;14.98;11.07;;;;;;;16.93;100.00;97684.75;5046394;28;20381;-75
2022/06/28 02:51:20;;;;;;;18.40;10.02;;;;;;;17.01;100.00;97687.69;5039840;28;20319;-75
2022/06/28 02:53:46;;;;;;;21.08;10.23;;;;;;;16.87;100.00;97672.63;5010178;28;20101;-76
2022/06/28 02:56:12;;;;;;;19.50;10.77;;;;;;;16.87;100.00;97683.44;5026586;28;20037;-76
2022/06/28 02:58:37;;;;;;;20.00;10.40;;;;;;;16.88;100.00;97684.28;5013299;28;20036;-75
2022/06/28 03:01:03;;;;;;;16.92;10.20;;;;;;;16.94;100.00;97692.75;5013456;28;20032;-75
2022/06/28 03:03:28;;;;;;;25.30;10.82;;;;;;;16.97;100.00;97688.91;5013426;28;20032;-75
2022/06/28 03:05:54;;;;;;;16.48;10.68;;;;;;;17.04;100.00;97690.13;5013344;28;20112;-75
2022/06/28 03:08:20;;;;;;;22.25;11.48;;;;;;;17.00;100.00;97685.94;5013447;28;20025;-76
2022/06/28 03:10:45;;;;;;;25.83;12.85;;;;;;;17.03;100.00;97686.56;5013039;28;20029;-77
2022/06/28 03:13:11;;;;;;;26.33;14.20;;;;;;;17.01;100.00;97688.50;5013228;28;20036;-76
2022/06/28 03:15:36;;;;;;;46.17;16.73;;;;;;;17.08;100.00;97695.09;5012985;28;20108;-76
2022/06/28 03:18:02;;;;;;;26.73;12.95;;;;;;;17.01;100.00;97690.38;5013188;28;20575;-76
2022/06/28 03:20:28;;;;;;;20.00;10.88;;;;;;;17.12;100.00;97701.97;5029602;28;20078;-75
2022/06/28 03:22:54;;;;;;;26.88;10.45;;;;;;;17.04;100.00;97692.81;4996634;28;20037;-75
2022/06/28 03:25:20;;;;;;;17.55;8.82;;;;;;;17.12;100.00;97696.56;5013216;28;20013;-76
2022/06/28 03:27:46;;;;;;;21.40;9.50;;;;;;;17.15;100.00;97700.84;4994232;28;20113;-77
2022/06/28 03:30:12;;;;;;;13.05;8.43;;;;;;;17.12;100.00;97687.59;5009747;28;20088;-76
2022/06/28 03:32:38;;;;;;;13.23;8.48;;;;;;;17.14;100.00;97674.78;4993612;28;20041;-78
2022/06/28 03:35:04;;;;;;;17.85;8.93;;;;;;;17.13;100.00;97682.06;4996853;28;20026;-75
2022/06/28 03:37:30;;;;;;;19.05;9.35;;;;;;;17.18;100.00;97681.66;5013006;28;20079;-75
2022/06/28 03:39:55;;;;;;;20.58;9.20;;;;;;;17.06;100.00;97663.81;5045794;28;20022;-77
2022/06/28 03:42:21;;;;;;;18.83;9.45;;;;;;;17.10;100.00;97668.78;5012788;28;20091;-75
2022/06/28 03:44:46;;;;;;;15.27;9.25;;;;;;;17.35;100.00;97703.53;5010171;28;20021;-76
2022/06/28 03:47:12;;;;;;;13.48;9.00;;;;;;;17.26;100.00;97669.19;5009907;28;20068;-75
2022/06/28 03:49:38;;;;;;;14.57;9.82;;;;;;;17.42;100.00;97698.47;5011532;28;20034;-76
2022/06/28 03:52:04;;;;;;;18.98;10.52;;;;;;;17.40;100.00;97678.81;5012092;28;20033;-76
2022/06/28 03:54:29;;;;;;;17.23;10.43;;;;;;;17.51;100.00;97697.66;5010427;28;20480;-77
2022/06/28 03:56:55;;;;;;;17.55;9.82;;;;;;;17.47;100.00;97685.41;5033043;28;20026;-77
2022/06/28 03:59:20;;;;;;;33.63;9.60;;;;;;;17.60;100.00;97685.19;5009455;28;20029;-76
2022/06/28 04:01:46;;;;;;;16.73;10.07;;;;;;;17.73;100.00;97697.53;5009686;28;20489;-77
2022/06/28 04:04:12;;;;;;;26.80;10.27;;;;;;;17.72;100.00;97679.56;5009518;28;20503;-77
2022/06/28 04:06:38;;;;;;;18.27;11.00;;;;;;;17.87;100.00;97686.31;5011165;28;20029;-77
2022/06/28 04:09:03;;;;;;;20.55;10.75;;;;;;;18.09;100.00;97714.19;5011420;28;20477;-76
2022/06/28 04:11:29;;;;;;;20.58;10.00;;;;;;;18.07;100.00;97705.34;5009475;28;20033;-77
2022/06/28 04:13:54;;;;;;;22.55;9.80;;;;;;;17.91;100.00;97686.03;5045444;28;20406;-77
2022/06/28 04:16:21;;;;;;;28.08;10.35;;;;;;;18.15;100.00;97709.06;5045589;28;20084;-77
2022/06/28 04:18:47;;;;;;;22.20;10.25;;;;;;;18.22;100.00;97712.94;5012976;28;20104;-77
2022/06/28 04:21:16;;;;;;;17.70;9.80;;;;;;;18.21;100.00;97683.31;4992949;28;20489;-77
2022/06/28 04:23:42;;;;;;;22.90;9.93;;;;;;;18.46;100.00;97707.16;5009552;28;20091;-77
2022/06/28 04:26:07;;;;;;;20.55;10.70;;;;;;;18.45;100.00;97715.44;5016670;28;20029;-78
2022/06/28 04:28:33;;;;;;;25.00;10.45;;;;;;;18.47;100.00;97703.44;5011631;28;20264;-77
2022/06/28 04:31:00;;;;;;;25.23;10.07;;;;;;;18.41;100.00;97704.00;4996003;28;20059;-77
2022/06/28 04:33:26;;;;;;;29.02;10.68;;;;;;;18.50;100.00;97703.19;5012685;28;20116;-76
2022/06/28 04:35:53;;;;;;;20.38;10.38;;;;;;;18.62;100.00;97704.78;5006500;28;20076;-77
2022/06/28 04:38:19;;;;;;;22.48;11.13;;;;;;;18.73;100.00;97704.69;4998730;28;20030;-76
2022/06/28 04:40:45;;;;;;;27.00;11.68;;;;;;;18.98;100.00;97722.19;4996190;28;20030;-76
2022/06/28 04:43:10;;;;;;;32.35;11.23;;;;;;;19.10;100.00;97718.38;4995985;28;20025;-80
2022/06/28 04:45:36;;;;;;;21.83;10.02;;;;;;;19.27;100.00;97720.34;5012669;28;20141;-81
2022/06/28 04:48:02;;;;;;;16.63;10.50;;;;;;;19.33;100.00;97713.47;5012657;28;20034;-79
2022/06/28 04:50:27;;;;;;;27.02;10.15;;;;;;;19.16;100.00;97712.38;4997808;28;20116;-80
2022/06/28 04:52:53;;;;;;;16.65;10.43;;;;;;;19.96;100.00;97725.50;5011335;28;20397;-81
2022/06/28 04:55:19;;;;;;;17.52;10.10;;;;;;;21.06;100.00;97717.13;5028353;28;20026;-81
2022/06/28 04:57:44;;;;;;;34.63;10.05;;;;;;;21.72;100.00;97722.09;5028690;28;20113;-82
2022/06/28 05:00:11;;;;;;;23.88;10.98;;;;;;;23.20;100.00;97727.84;4998761;28;20470;-80
2022/06/28 05:02:40;;;;;;;12.95;8.80;;;;;;;24.67;86.64;97721.94;4997779;28;20033;-79
2022/06/28 05:05:07;;;;;;;15.55;8.90;;;;;;;26.07;78.07;97722.44;4993238;28;20058;-79
2022/06/28 05:07:33;;;;;;;19.33;9.00;;;;;;;26.63;71.22;97731.94;5009124;28;20034;-78
2022/06/28 05:10:02;;;;;;;13.05;8.65;;;;;;;27.61;67.71;97715.75;5027595;28;20172;-79
2022/06/28 05:12:28;;;;;;;20.23;8.23;;;;;;;27.02;67.94;97712.38;5023596;28;20037;-77
2022/06/28 05:14:53;;;;;;;12.73;7.95;;;;;;;27.97;64.63;97716.47;5012077;28;20022;-78
2022/06/28 05:17:19;;;;;;;15.35;8.00;;;;;;;28.77;61.00;97706.84;5011925;28;20029;-78
2022/06/28 05:19:45;;;;;;;9.70;7.80;;;;;;;28.30;60.65;97704.91;5012136;28;20032;-79
2022/06/28 05:22:10;;;;;;;20.52;8.45;;;;;;;28.94;60.88;97708.19;5009674;28;20465;-77
2022/06/28 05:24:37;;;;;;;33.70;9.13;;;;;;;30.47;57.23;97701.56;5011799;28;20445;-77
2022/06/28 05:27:03;;;;;;;20.08;7.90;;;;;;;30.32;56.07;97692.66;5028147;28;20034;-76
2022/06/28 05:29:29;;;;;;;17.13;7.95;;;;;;;31.35;55.11;97694.38;5003017;28;20037;-78
2022/06/28 05:31:55;;;;;;;18.17;7.60;;;;;;;31.41;51.55;97671.34;4992598;28;20054;-76
2022/06/28 05:34:20;;;;;;;22.30;7.60;;;;;;;31.88;50.86;97688.47;4977127;28;20064;-76
2022/06/28 05:36:46;;;;;;;15.10;7.13;;;;;;;32.09;49.50;97680.63;4992423;28;20037;-77
2022/06/28 05:39:11;;;;;;;29.40;20.13;;;;;;;31.98;49.59;97688.81;5024736;28;20030;-76
2022/06/28 05:41:38;;;;;;;9.20;7.45;;;;;;;32.45;48.50;97699.25;5000466;28;20530;-79
2022/06/28 05:44:04;;;;;;;14.25;7.82;;;;;;;33.28;47.42;97705.09;4992581;28;20136;-78
2022/06/28 05:46:29;;;;;;;10.20;7.55;;;;;;;33.59;45.79;97713.19;4992286;28;20038;-77
2022/06/28 05:48:55;;;;;;;19.95;12.95;;;;;;;32.58;47.96;97696.34;5025365;28;20053;-78
2022/06/28 05:51:21;;;;;;;14.48;7.38;;;;;;;32.97;47.25;97708.03;5025899;28;20029;-76
2022/06/28 05:53:46;;;;;;;14.05;7.55;;;;;;;33.70;46.29;97708.75;5008068;28;20029;-78
2022/06/28 05:56:12;;;;;;;19.90;7.47;;;;;;;33.60;45.54;97709.31;5025241;28;20033;-78
2022/06/28 05:58:37;;;;;;;13.05;7.85;;;;;;;32.72;45.90;97703.44;5024664;28;20033;-79
2022/06/28 06:01:03;;;;;;;15.60;7.07;;;;;;;32.99;46.41;97711.41;4998658;28;20089;-78
2022/06/28 06:03:30;;;;;;;16.10;7.65;;;;;;;33.60;44.75;97711.25;5024759;28;20057;-78
2022/06/28 06:05:55;;;;;;;17.92;9.50;;;;;;;34.83;42.67;97701.81;5000127;28;20030;-78
2022/06/28 06:08:21;;;;;;;10.55;8.45;;;;;;;35.27;41.28;97704.97;4992211;28;20032;-77
2022/06/28 06:10:47;;;;;;;13.98;8.50;;;;;;;34.74;42.25;97694.09;5024652;28;20408;-79
2022/06/28 06:13:12;;;;;;;11.15;7.05;;;;;;;35.74;40.46;97698.13;4993615;28;20533;-80
2022/06/28 06:15:38;;;;;;;24.67;10.65;;;;;;;36.57;39.11;97702.88;5024650;28;20481;-80
2022/06/28 06:18:03;;;;;;;15.32;8.20;;;;;;;37.30;37.93;97702.47;5008681;28;20033;-80
2022/06/28 06:20:29;;;;;;;16.60;7.97;;;;;;;36.63;38.02;97701.00;5024861;28;20494;-78
2022/06/28 06:22:54;;;;;;;15.25;6.50;;;;;;;36.08;38.60;97692.59;4992965;28;20463;-79
2022/06/28 06:25:20;;;;;;;17.38;6.72;;;;;;;34.93;40.79;97698.41;5024883;28;20026;-80
2022/06/28 06:27:46;;;;;;;12.20;6.55;;;;;;;35.59;39.56;97695.06;4997159;28;20493;-80
2022/06/28 06:30:12;;;;;;;14.55;7.45;;;;;;;36.10;39.26;97696.81;5029257;28;20168;-80
2022/06/28 06:32:38;;;;;;;18.02;6.88;;;;;;;37.13;37.57;97684.13;5039824;28;20060;-80
2022/06/28 06:35:03;;;;;;;24.17;9.07;;;;;;;37.06;37.98;97683.47;5032584;28;20556;-80
2022/06/28 06:37:29;;;;;;;11.07;6.20;;;;;;;36.98;36.81;97668.00;5032516;28;20021;-79
2022/06/28 06:39:55;;;;;;;14.25;6.30;;;;;;;36.20;38.40;97685.00;5009919;28;20040;-80
2022/06/28 06:42:20;;;;;;;11.70;6.18;;;;;;;37.20;37.61;97656.84;5028873;28;20560;-80
2022/06/28 06:44:46;;;;;;;13.27;5.82;;;;;;;38.19;35.87;97676.84;5036004;28;20022;-80
2022/06/28 06:47:12;;;;;;;12.35;6.63;;;;;;;37.77;36.54;97674.81;5008419;28;20362;-79
2022/06/28 06:49:37;;;;;;;9.20;5.65;;;;;;;38.05;36.00;97681.22;5029254;28;20044;-81
2022/06/28 06:52:03;;;;;;;11.90;8.20;;;;;;;38.55;35.19;97659.22;5024144;28;20038;-81
2022/06/28 06:54:29;;;;;;;14.02;10.13;;;;;;;38.49;35.02;97654.72;5029419;28;20261;-81
2022/06/28 06:56:54;;;;;;;10.55;6.57;;;;;;;37.21;36.97;97661.31;5010290;28;20048;-80
2022/06/28 06:59:20;;;;;;;22.90;13.60;;;;;;;36.62;38.26;97663.91;5028116;28;20859;-80
2022/06/28 07:01:46;;;;;;;20.48;11.73;;;;;;;36.93;38.13;97660.41;5011105;28;20029;-79
2022/06/28 07:04:12;;;;;;;20.38;11.70;;;;;;;37.79;36.26;97675.38;5010758;28;20538;-80
2022/06/28 07:06:38;;;;;;;34.30;25.02;;;;;;;37.84;36.65;97666.22;4990763;28;20457;-80
2022/06/28 07:09:12;;;;;;;17.20;5.95;;;;;;;37.96;35.70;97662.13;5009489;28;20040;-80
2022/06/28 07:11:38;;;;;;;13.65;6.07;;;;;;;36.80;37.17;97668.31;5005605;28;20034;-80
2022/06/28 07:14:04;;;;;;;14.25;5.93;;;;;;;38.60;35.31;97662.06;5011072;28;20059;-81
2022/06/28 07:16:29;;;;;;;18.58;9.13;;;;;;;39.47;33.64;97661.34;5029569;28;20033;-87
2022/06/28 07:18:55;;;;;;;17.30;6.50;;;;;;;39.52;32.90;97638.94;5033659;28;20429;-87
2022/06/28 07:21:23;;;;;;;10.85;5.47;;;;;;;39.78;32.63;97640.66;5033221;28;20136;-88
2022/06/28 07:23:56;;;;;;;6.95;5.82;;;;;;;40.11;31.97;97632.84;5031849;28;20025;-89
2022/06/28 07:26:23;;;;;;;10.45;5.70;;;;;;;41.15;30.63;97632.03;4995326;28;20183;-80
2022/06/28 07:32:10;;;;;;;14.25;5.82;;;;;;;37.06;35.23;97622.94;5006429;28;20045;-80
2022/06/28 07:34:39;;;;;;;14.30;5.70;;;;;;;38.07;33.74;97628.69;4988068;28;20046;-79
2022/06/28 07:37:10;;;;;;;9.13;5.20;;;;;;;38.37;33.27;97642.88;5008408;28;20546;-81
2022/06/28 07:39:36;;;;;;;11.65;5.95;;;;;;;39.13;32.98;97615.31;5007145;28;20589;-80
2022/06/28 07:42:02;;;;;;;15.43;5.57;;;;;;;40.25;31.05;97617.97;4990250;28;20112;-81
2022/06/28 07:44:27;;;;;;;11.77;5.40;;;;;;;39.11;31.76;97628.72;4990484;28;20036;-79
2022/06/28 07:46:53;;;;;;;6.65;5.10;;;;;;;38.70;32.15;97634.13;4990295;28;20551;-81
2022/06/28 07:49:18;;;;;;;7.82;5.97;;;;;;;39.08;32.18;97640.47;4990725;28;20497;-79
2022/06/28 07:54:28;;;;;;;9.75;5.43;;;;;;;38.02;34.24;97649.06;5007108;28;20037;-83
2022/06/28 07:56:54;;;;;;;6.60;5.00;;;;;;;38.03;32.84;97645.13;4990472;28;20034;-80
2022/06/28 07:59:19;;;;;;;9.30;6.05;;;;;;;36.39;35.12;97642.63;4990981;28;20494;-80
2022/06/28 08:01:46;;;;;;;6.65;5.10;;;;;;;37.85;34.13;97642.72;4990611;28;20036;-80
2022/06/28 08:04:12;;;;;;;9.20;5.43;;;;;;;38.89;34.12;97631.72;4994108;28;20018;-81
2022/06/28 08:06:38;;;;;;;22.77;5.47;;;;;;;38.77;34.25;97629.13;5011013;28;20014;-82
2022/06/28 08:09:05;;;;;;;9.55;5.38;;;;;;;38.58;34.47;97629.88;4994814;28;20051;-81
2022/06/28 08:11:32;;;;;;;6.93;4.97;;;;;;;39.22;33.27;97628.50;4994618;28;20120;-82
2022/06/28 08:13:58;;;;;;;8.85;5.40;;;;;;;39.36;33.31;97637.22;5010483;28;20112;-80
2022/06/28 08:16:24;;;;;;;10.48;5.95;;;;;;;39.89;32.08;97622.75;4994461;28;20437;-81
2022/06/28 08:18:49;;;;;;;10.35;6.43;;;;;;;40.75;31.46;97631.06;4994506;28;20029;-80
2022/06/28 08:21:15;;;;;;;12.75;6.30;;;;;;;40.70;29.93;97610.59;4978079;28;20030;-81
2022/06/28 08:23:41;;;;;;;8.80;5.30;;;;;;;40.26;30.60;97610.41;4994090;28;20462;-81
2022/06/28 08:26:06;;;;;;;13.38;7.28;;;;;;;40.74;30.46;97611.69;4994241;28;20034;-81
2022/06/28 08:28:32;;;;;;;13.25;7.60;;;;;;;39.74;31.06;97617.16;5011687;28;20068;-81
2022/06/28 08:30:58;;;;;;;10.73;6.43;;;;;;;39.00;32.96;97617.50;4994110;28;20054;-81
2022/06/28 08:33:23;;;;;;;11.68;5.47;;;;;;;39.33;31.44;97616.22;5010149;28;20041;-81
2022/06/28 08:35:49;;;;;;;17.60;5.47;;;;;;;40.23;31.08;97620.22;5010481;28;20030;-81
2022/06/28 08:38:14;;;;;;;4.88;4.47;;;;;;;40.57;29.79;97620.44;5010410;28;20117;-82
2022/06/28 08:40:40;;;;;;;13.75;10.23;;;;;;;39.89;30.90;97613.50;5030227;28;20108;-81
2022/06/28 08:43:07;;;;;;;5.78;4.65;;;;;;;40.50;29.60;97611.44;4997764;28;20022;-81
2022/06/28 08:45:33;;;;;;;8.75;5.57;;;;;;;41.18;29.51;97612.63;5029874;28;20745;-81
2022/06/28 08:48:02;;;;;;;10.10;4.85;;;;;;;40.84;29.65;97608.84;5013750;28;20029;-80
2022/06/28 08:50:37;;;;;;;6.95;5.78;;;;;;;39.82;30.50;97616.56;5010830;28;20389;-82
2022/06/28 08:53:07;;;;;;;8.88;5.35;;;;;;;39.87;30.95;97616.56;5029894;28;20132;-81
2022/06/28 08:55:35;;;;;;;5.18;4.70;;;;;;;40.79;29.37;97615.31;5011623;28;20037;-80
2022/06/28 08:58:02;;;;;;;7.25;4.50;;;;;;;41.64;28.50;97614.03;5007130;28;20036;-81
2022/06/28 09:00:28;;;;;;;8.82;4.60;;;;;;;40.93;28.96;97607.09;5029928;28;20040;-80
2022/06/28 09:02:54;;;;;;;12.75;5.00;;;;;;;41.35;28.26;97598.25;5013153;28;20037;-80
2022/06/28 09:05:21;;;;;;;5.32;4.10;;;;;;;40.70;29.07;97608.63;5029419;28;20183;-79
2022/06/28 09:07:46;;;;;;;9.35;4.72;;;;;;;40.90;28.96;97600.09;5029358;28;20029;-81
2022/06/28 09:10:12;;;;;;;10.55;4.70;;;;;;;41.26;28.74;97602.75;5029426;28;20068;-80
2022/06/28 09:12:38;;;;;;;8.27;4.15;;;;;;;39.04;30.67;97598.19;5027904;28;20029;-80
2022/06/28 09:15:05;;;;;;;8.57;4.45;;;;;;;39.52;31.04;97596.91;4993037;28;20033;-80
2022/06/28 09:17:32;;;;;;;5.72;4.10;;;;;;;40.16;29.82;97590.78;5034077;28;20397;-80
2022/06/28 09:20:02;;;;;;;13.45;4.55;;;;;;;41.59;28.91;97604.81;5012792;28;20511;-78
2022/06/28 09:22:33;;;;;;;10.30;5.15;;;;;;;42.23;28.20;97600.94;5029356;28;20037;-79
2022/06/28 09:25:00;;;;;;;8.65;4.70;;;;;;;41.83;28.26;97602.97;5009604;28;20037;-79
2022/06/28 09:27:34;;;;;;;9.25;4.60;;;;;;;42.64;27.24;97591.75;4996392;28;20488;-79
2022/06/28 09:30:01;;;;;;;8.35;4.68;;;;;;;42.85;27.15;97595.19;4996085;28;20056;-80
2022/06/28 09:32:31;;;;;;;10.93;4.47;;;;;;;41.95;28.15;97603.41;4997225;28;20401;-79
2022/06/28 09:35:15;;;;;;;6.65;4.68;;;;;;;41.48;28.56;97580.72;5043635;28;20022;-78
2022/06/28 09:37:56;;;;;;;5.57;4.10;;;;;;;42.33;27.09;97583.94;5028527;28;20030;-79
2022/06/28 09:40:28;;;;;;;9.05;4.22;;;;;;;42.59;27.36;97576.91;5011620;28;20032;-78
2022/06/28 09:43:10;;;;;;;17.85;4.72;;;;;;;43.34;26.69;97591.13;5036367;28;20038;-79
2022/06/28 09:45:50;;;;;;;16.15;7.40;;;;;;;43.20;26.91;97579.78;5021094;28;20033;-79
2022/06/28 09:48:19;;;;;;;13.50;6.50;;;;;;;42.38;28.23;97583.88;5034464;28;20116;-79
2022/06/28 09:50:45;;;;;;;10.93;5.03;;;;;;;42.31;27.56;97567.34;5045304;28;20025;-78
2022/06/28 09:53:14;;;;;;;4.85;4.00;;;;;;;40.76;30.32;97575.75;5048045;28;20079;-79
2022/06/28 09:55:41;;;;;;;6.85;5.60;;;;;;;39.09;31.78;97580.56;5014879;28;20406;-78
2022/06/28 09:58:07;;;;;;;11.18;5.28;;;;;;;37.43;34.19;97579.22;5047518;28;20036;-78
2022/06/28 10:00:35;;;;;;;7.78;4.78;;;;;;;36.58;35.96;97586.63;5047955;28;20488;-78
2022/06/28 10:03:04;;;;;;;8.73;5.55;;;;;;;35.76;37.15;97584.53;5030945;28;20791;-80
2022/06/28 10:05:58;;;;;;;12.13;5.22;;;;;;;35.87;37.42;97579.97;5032619;28;20036;-79
2022/06/28 10:08:27;;;;;;;9.80;5.05;;;;;;;37.93;34.08;97578.81;5023541;28;20504;-79
2022/06/28 10:10:52;;;;;;;6.38;4.75;;;;;;;37.68;33.61;97580.56;5014792;28;20033;-81
2022/06/28 10:16:19;;;;;;;7.28;4.80;;;;;;;34.68;38.53;97581.94;5017127;28;20112;-81
2022/06/28 10:18:45;;;;;;;6.13;4.70;;;;;;;34.38;39.01;97586.84;5014223;28;20496;-81
2022/06/28 10:21:11;;;;;;;8.82;5.13;;;;;;;34.06;40.13;97580.81;5011256;28;20029;-81
2022/06/28 10:23:37;;;;;;;7.93;5.95;;;;;;;36.07;37.07;97585.03;5042916;28;20028;-81
2022/06/28 10:26:15;;;;;;;11.27;4.95;;;;;;;38.35;33.26;97570.47;5021941;28;20072;-81
2022/06/28 10:28:47;;;;;;;14.77;5.45;;;;;;;40.07;30.92;97563.28;5010781;28;20033;-81
2022/06/28 10:31:22;;;;;;;6.93;5.13;;;;;;;39.58;31.76;97562.19;5010555;28;20050;-81
2022/06/28 10:33:49;;;;;;;10.73;5.50;;;;;;;38.28;33.25;97557.81;5010462;28;20030;-81
2022/06/28 10:36:16;;;;;;;13.73;8.20;;;;;;;38.17;34.57;97556.06;5031519;28;20437;-81
2022/06/28 10:39:00;;;;;;;7.22;5.57;;;;;;;40.24;30.94;97553.75;5013889;28;20052;-81
2022/06/28 10:41:44;;;;;;;12.65;4.90;;;;;;;42.15;28.49;97546.09;5010505;28;20505;-82
2022/06/28 10:44:16;;;;;;;11.57;5.70;;;;;;;42.21;27.61;97533.69;5026480;28;20117;-80
2022/06/28 10:46:49;;;;;;;5.97;4.10;;;;;;;42.36;26.86;97519.47;5013768;28;20071;-80
2022/06/28 10:49:14;;;;;;;4.55;4.13;;;;;;;42.58;26.99;97524.56;5046614;28;20022;-81
2022/06/28 10:52:01;;;;;;;6.60;4.50;;;;;;;42.31;25.92;97511.06;5046730;28;20116;-80
2022/06/28 10:54:27;;;;;;;5.32;4.47;;;;;;;42.83;25.38;97512.97;5031169;28;20033;-79
2022/06/28 10:56:54;;;;;;;10.32;4.80;;;;;;;43.07;24.71;97507.31;5038327;28;20412;-82
2022/06/28 10:59:34;;;;;;;6.30;5.03;;;;;;;42.75;24.68;97508.00;5026764;28;20038;-82
2022/06/28 11:01:59;;;;;;;12.77;5.90;;;;;;;43.28;25.23;97510.63;5010264;28;20042;-82
2022/06/28 11:04:26;;;;;;;6.65;5.00;;;;;;;43.47;24.84;97512.31;5023840;28;20560;-82
2022/06/28 11:07:07;;;;;;;7.40;5.72;;;;;;;43.69;24.18;97506.00;5013702;28;20163;-81
2022/06/28 11:09:45;;;;;;;8.35;5.63;;;;;;;44.55;23.62;97508.06;5010116;28;20030;-81
2022/06/28 11:12:27;;;;;;;6.40;5.28;;;;;;;44.24;24.12;97501.34;5011986;28;20088;-81
2022/06/28 11:14:57;;;;;;;7.60;5.53;;;;;;;44.06;23.86;97482.50;5013403;28;20032;-81
2022/06/28 11:17:27;;;;;;;7.47;5.45;;;;;;;44.03;23.62;97471.84;4996996;28;20480;-81
2022/06/28 11:20:01;;;;;;;9.70;5.65;;;;;;;44.07;23.56;97482.22;5022359;28;20037;-82
2022/06/28 11:22:28;;;;;;;10.65;4.97;;;;;;;43.64;24.20;97478.75;5037474;28;20396;-81
2022/06/28 11:24:57;;;;;;;8.77;5.20;;;;;;;42.91;24.90;97469.22;5031788;28;20033;-82
2022/06/28 11:27:23;;;;;;;6.80;4.90;;;;;;;42.71;24.97;97481.59;5009818;28;20029;-81
2022/06/28 11:29:55;;;;;;;6.38;5.72;;;;;;;43.21;25.07;97485.66;5036587;28;20037;-82
2022/06/28 11:32:26;;;;;;;9.40;4.25;;;;;;;43.13;25.39;97492.00;4985411;28;20475;-82
2022/06/28 11:34:54;;;;;;;10.60;5.00;;;;;;;43.04;24.92;97486.19;5008095;28;20030;-81
2022/06/28 11:37:20;;;;;;;10.00;5.20;;;;;;;42.85;24.51;97481.69;5009571;28;20026;-82